sensor_id;sensor_type;location;lat;lon;timestamp;P1;durP1;ratioP1;P2;durP2;ratioP2
21152;SDS011;10734;44.792;20.482;2022-08-21T00:00:21;34.13;;;24.10;;
21152;SDS011;10734;44.792;20.482;2022-08-21T00:02:53;48.72;;;29.02;;
21152;SDS011;10734;44.792;20.482;2022-08-21T00:05:23;48.83;;;29.83;;
21152;SDS011;10734;44.792;20.482;2022-08-21T00:07:52;42.42;;;27.15;;
21152;SDS011;10734;44.792;20.482;2022-08-21T00:10:21;41.33;;;26.45;;
21152;SDS011;10734;44.792;20.482;2022-08-21T00:12:50;48.33;;;31.45;;
21152;SDS011;10734;44.792;20.482;2022-08-21T00:15:20;43.63;;;30.02;;
21152;SDS011;10734;44.792;20.482;2022-08-21T00:17:50;50.03;;;33.47;;
21152;SDS011;10734;44.792;20.482;2022-08-21T00:20:19;39.60;;;26.25;;
21152;SDS011;10734;44.792;20.482;2022-08-21T00:22:47;36.17;;;23.88;;
21152;SDS011;10734;44.792;20.482;2022-08-21T00:25:15;38.90;;;25.05;;
21152;SDS011;10734;44.792;20.482;2022-08-21T00:27:46;52.20;;;33.93;;
21152;SDS011;10734;44.792;20.482;2022-08-21T00:30:15;54.13;;;37.35;;
21152;SDS011;10734;44.792;20.482;2022-08-21T00:32:50;59.28;;;39.83;;
21152;SDS011;10734;44.792;20.482;2022-08-21T00:35:21;59.85;;;37.67;;
21152;SDS011;10734;44.792;20.482;2022-08-21T00:37:52;47.97;;;34.83;;
21152;SDS011;10734;44.792;20.482;2022-08-21T00:40:40;51.17;;;31.83;;
21152;SDS011;10734;44.792;20.482;2022-08-21T00:43:12;41.85;;;28.02;;
21152;SDS011;10734;44.792;20.482;2022-08-21T00:45:44;29.98;;;22.65;;
21152;SDS011;10734;44.792;20.482;2022-08-21T00:48:12;34.38;;;19.48;;
21152;SDS011;10734;44.792;20.482;2022-08-21T00:50:42;24.33;;;17.48;;
21152;SDS011;10734;44.792;20.482;2022-08-21T00:53:11;28.05;;;15.77;;
21152;SDS011;10734;44.792;20.482;2022-08-21T00:55:41;22.63;;;14.63;;
21152;SDS011;10734;44.792;20.482;2022-08-21T00:58:11;23.10;;;11.85;;
21152;SDS011;10734;44.792;20.482;2022-08-21T01:00:44;19.00;;;11.85;;
21152;SDS011;10734;44.792;20.482;2022-08-21T01:03:19;14.67;;;10.27;;
21152;SDS011;10734;44.792;20.482;2022-08-21T01:05:51;18.50;;;10.50;;
21152;SDS011;10734;44.792;20.482;2022-08-21T01:08:21;13.80;;;8.50;;
21152;SDS011;10734;44.792;20.482;2022-08-21T01:10:50;13.10;;;7.65;;
21152;SDS011;10734;44.792;20.482;2022-08-21T01:13:23;8.50;;;6.20;;
21152;SDS011;10734;44.792;20.482;2022-08-21T01:15:57;12.27;;;6.05;;
21152;SDS011;10734;44.792;20.482;2022-08-21T01:18:31;5.00;;;4.47;;
21152;SDS011;10734;44.792;20.482;2022-08-21T01:21:13;6.40;;;3.70;;
21152;SDS011;10734;44.792;20.482;2022-08-21T01:23:55;8.10;;;3.25;;
21152;SDS011;10734;44.792;20.482;2022-08-21T01:26:25;4.25;;;2.78;;
21152;SDS011;10734;44.792;20.482;2022-08-21T01:32:10;3.08;;;2.40;;
21152;SDS011;10734;44.792;20.482;2022-08-21T01:34:42;3.92;;;2.92;;
21152;SDS011;10734;44.792;20.482;2022-08-21T01:37:12;4.38;;;2.85;;
21152;SDS011;10734;44.792;20.482;2022-08-21T01:39:44;3.90;;;2.70;;
21152;SDS011;10734;44.792;20.482;2022-08-21T01:42:13;4.93;;;2.47;;
21152;SDS011;10734;44.792;20.482;2022-08-21T01:44:40;3.30;;;2.63;;
21152;SDS011;10734;44.792;20.482;2022-08-21T01:47:09;6.15;;;2.75;;
21152;SDS011;10734;44.792;20.482;2022-08-21T01:49:42;5.13;;;2.63;;
21152;SDS011;10734;44.792;20.482;2022-08-21T01:52:11;4.55;;;2.63;;
21152;SDS011;10734;44.792;20.482;2022-08-21T01:54:41;4.43;;;2.65;;
21152;SDS011;10734;44.792;20.482;2022-08-21T01:57:11;6.63;;;2.90;;
21152;SDS011;10734;44.792;20.482;2022-08-21T01:59:39;5.40;;;2.75;;
21152;SDS011;10734;44.792;20.482;2022-08-21T02:02:07;4.00;;;2.20;;
21152;SDS011;10734;44.792;20.482;2022-08-21T02:04:34;3.00;;;2.53;;
21152;SDS011;10734;44.792;20.482;2022-08-21T02:07:03;3.45;;;2.40;;
21152;SDS011;10734;44.792;20.482;2022-08-21T02:09:34;2.20;;;1.98;;
21152;SDS011;10734;44.792;20.482;2022-08-21T02:12:06;4.20;;;2.45;;
21152;SDS011;10734;44.792;20.482;2022-08-21T02:14:34;3.72;;;2.65;;
21152;SDS011;10734;44.792;20.482;2022-08-21T02:17:03;3.58;;;2.60;;
21152;SDS011;10734;44.792;20.482;2022-08-21T02:19:36;3.70;;;2.75;;
21152;SDS011;10734;44.792;20.482;2022-08-21T02:22:07;4.07;;;2.60;;
21152;SDS011;10734;44.792;20.482;2022-08-21T02:24:36;4.22;;;2.60;;
21152;SDS011;10734;44.792;20.482;2022-08-21T02:27:23;6.63;;;3.00;;
21152;SDS011;10734;44.792;20.482;2022-08-21T02:29:54;7.45;;;3.55;;
21152;SDS011;10734;44.792;20.482;2022-08-21T02:32:22;8.27;;;3.78;;
21152;SDS011;10734;44.792;20.482;2022-08-21T02:34:54;6.90;;;3.90;;
21152;SDS011;10734;44.792;20.482;2022-08-21T02:37:23;5.75;;;4.18;;
21152;SDS011;10734;44.792;20.482;2022-08-21T02:39:51;10.32;;;4.18;;
21152;SDS011;10734;44.792;20.482;2022-08-21T02:42:19;6.47;;;3.80;;
21152;SDS011;10734;44.792;20.482;2022-08-21T02:44:49;8.43;;;3.45;;
21152;SDS011;10734;44.792;20.482;2022-08-21T02:47:18;4.85;;;2.95;;
21152;SDS011;10734;44.792;20.482;2022-08-21T02:49:46;6.25;;;3.40;;
21152;SDS011;10734;44.792;20.482;2022-08-21T02:52:13;4.45;;;3.35;;
21152;SDS011;10734;44.792;20.482;2022-08-21T02:54:41;4.57;;;3.15;;
21152;SDS011;10734;44.792;20.482;2022-08-21T02:57:09;3.40;;;2.55;;
21152;SDS011;10734;44.792;20.482;2022-08-21T02:59:37;6.10;;;3.20;;
21152;SDS011;10734;44.792;20.482;2022-08-21T03:02:06;3.38;;;2.85;;
21152;SDS011;10734;44.792;20.482;2022-08-21T03:04:33;5.35;;;3.58;;
21152;SDS011;10734;44.792;20.482;2022-08-21T03:07:01;4.95;;;3.63;;
21152;SDS011;10734;44.792;20.482;2022-08-21T03:09:32;4.80;;;3.80;;
21152;SDS011;10734;44.792;20.482;2022-08-21T03:12:00;4.32;;;3.92;;
21152;SDS011;10734;44.792;20.482;2022-08-21T03:14:27;6.90;;;3.47;;
21152;SDS011;10734;44.792;20.482;2022-08-21T03:16:55;3.53;;;3.10;;
21152;SDS011;10734;44.792;20.482;2022-08-21T03:19:23;3.38;;;2.72;;
21152;SDS011;10734;44.792;20.482;2022-08-21T03:21:51;7.13;;;3.20;;
21152;SDS011;10734;44.792;20.482;2022-08-21T03:24:19;3.22;;;2.90;;
21152;SDS011;10734;44.792;20.482;2022-08-21T03:26:48;5.38;;;2.88;;
21152;SDS011;10734;44.792;20.482;2022-08-21T03:29:16;3.03;;;2.72;;
21152;SDS011;10734;44.792;20.482;2022-08-21T03:31:45;2.47;;;2.25;;
21152;SDS011;10734;44.792;20.482;2022-08-21T03:34:13;4.13;;;3.75;;
21152;SDS011;10734;44.792;20.482;2022-08-21T03:36:41;3.75;;;3.00;;
21152;SDS011;10734;44.792;20.482;2022-08-21T03:39:11;5.15;;;2.67;;
21152;SDS011;10734;44.792;20.482;2022-08-21T03:41:39;3.40;;;3.10;;
21152;SDS011;10734;44.792;20.482;2022-08-21T03:44:05;4.63;;;2.63;;
21152;SDS011;10734;44.792;20.482;2022-08-21T03:46:34;5.28;;;3.13;;
21152;SDS011;10734;44.792;20.482;2022-08-21T03:49:04;4.80;;;3.20;;
21152;SDS011;10734;44.792;20.482;2022-08-21T03:51:31;5.40;;;4.10;;
21152;SDS011;10734;44.792;20.482;2022-08-21T03:54:00;3.92;;;3.35;;
21152;SDS011;10734;44.792;20.482;2022-08-21T03:56:27;6.90;;;6.30;;
21152;SDS011;10734;44.792;20.482;2022-08-21T03:58:55;7.32;;;5.70;;
21152;SDS011;10734;44.792;20.482;2022-08-21T04:01:22;8.30;;;7.55;;
21152;SDS011;10734;44.792;20.482;2022-08-21T04:03:51;8.30;;;7.43;;
21152;SDS011;10734;44.792;20.482;2022-08-21T04:06:19;10.48;;;9.35;;
21152;SDS011;10734;44.792;20.482;2022-08-21T04:08:47;11.02;;;9.82;;
21152;SDS011;10734;44.792;20.482;2022-08-21T04:11:15;9.07;;;8.18;;
21152;SDS011;10734;44.792;20.482;2022-08-21T04:13:44;14.05;;;8.65;;
21152;SDS011;10734;44.792;20.482;2022-08-21T04:16:12;14.15;;;12.55;;
21152;SDS011;10734;44.792;20.482;2022-08-21T04:18:40;11.52;;;9.93;;
21152;SDS011;10734;44.792;20.482;2022-08-21T04:21:07;21.02;;;12.90;;
21152;SDS011;10734;44.792;20.482;2022-08-21T04:23:37;26.88;;;13.63;;
21152;SDS011;10734;44.792;20.482;2022-08-21T04:26:05;19.08;;;13.85;;
21152;SDS011;10734;44.792;20.482;2022-08-21T04:28:34;17.52;;;12.23;;
21152;SDS011;10734;44.792;20.482;2022-08-21T04:31:02;17.00;;;12.40;;
21152;SDS011;10734;44.792;20.482;2022-08-21T04:33:30;16.95;;;12.27;;
21152;SDS011;10734;44.792;20.482;2022-08-21T04:35:57;15.27;;;13.10;;
21152;SDS011;10734;44.792;20.482;2022-08-21T04:38:24;17.75;;;12.65;;
21152;SDS011;10734;44.792;20.482;2022-08-21T04:41:01;15.73;;;13.30;;
21152;SDS011;10734;44.792;20.482;2022-08-21T04:43:29;20.20;;;12.70;;
21152;SDS011;10734;44.792;20.482;2022-08-21T04:45:57;15.27;;;11.30;;
21152;SDS011;10734;44.792;20.482;2022-08-21T04:48:27;20.00;;;12.82;;
21152;SDS011;10734;44.792;20.482;2022-08-21T04:53:47;17.55;;;12.00;;
21152;SDS011;10734;44.792;20.482;2022-08-21T04:56:25;12.95;;;9.93;;
21152;SDS011;10734;44.792;20.482;2022-08-21T04:58:54;12.25;;;9.88;;
21152;SDS011;10734;44.792;20.482;2022-08-21T05:01:25;12.05;;;10.63;;
21152;SDS011;10734;44.792;20.482;2022-08-21T05:03:59;14.52;;;9.73;;
21152;SDS011;10734;44.792;20.482;2022-08-21T05:06:28;10.00;;;8.80;;
21152;SDS011;10734;44.792;20.482;2022-08-21T05:09:01;8.02;;;7.18;;
21152;SDS011;10734;44.792;20.482;2022-08-21T05:11:29;17.55;;;8.32;;
21152;SDS011;10734;44.792;20.482;2022-08-21T05:13:57;8.00;;;6.70;;
21152;SDS011;10734;44.792;20.482;2022-08-21T05:16:25;15.02;;;7.35;;
21152;SDS011;10734;44.792;20.482;2022-08-21T05:19:09;11.10;;;7.20;;
21152;SDS011;10734;44.792;20.482;2022-08-21T05:21:39;8.18;;;6.72;;
21152;SDS011;10734;44.792;20.482;2022-08-21T05:24:10;9.82;;;8.63;;
21152;SDS011;10734;44.792;20.482;2022-08-21T05:26:39;13.88;;;9.70;;
21152;SDS011;10734;44.792;20.482;2022-08-21T05:29:14;14.63;;;10.65;;
21152;SDS011;10734;44.792;20.482;2022-08-21T05:31:45;18.10;;;11.68;;
21152;SDS011;10734;44.792;20.482;2022-08-21T05:34:14;17.08;;;11.38;;
21152;SDS011;10734;44.792;20.482;2022-08-21T05:36:48;15.40;;;9.85;;
21152;SDS011;10734;44.792;20.482;2022-08-21T05:39:16;13.38;;;9.18;;
21152;SDS011;10734;44.792;20.482;2022-08-21T05:41:44;12.23;;;9.75;;
21152;SDS011;10734;44.792;20.482;2022-08-21T05:44:14;14.43;;;10.77;;
21152;SDS011;10734;44.792;20.482;2022-08-21T05:46:42;18.50;;;10.57;;
21152;SDS011;10734;44.792;20.482;2022-08-21T05:49:10;13.27;;;10.38;;
21152;SDS011;10734;44.792;20.482;2022-08-21T05:51:39;15.32;;;10.25;;
21152;SDS011;10734;44.792;20.482;2022-08-21T05:54:08;14.85;;;10.27;;
21152;SDS011;10734;44.792;20.482;2022-08-21T05:56:37;21.13;;;11.15;;
21152;SDS011;10734;44.792;20.482;2022-08-21T05:59:04;15.95;;;12.90;;
21152;SDS011;10734;44.792;20.482;2022-08-21T06:01:36;17.67;;;12.93;;
21152;SDS011;10734;44.792;20.482;2022-08-21T06:04:04;17.20;;;12.63;;
21152;SDS011;10734;44.792;20.482;2022-08-21T06:06:34;15.40;;;12.30;;
21152;SDS011;10734;44.792;20.482;2022-08-21T06:09:05;14.60;;;11.23;;
21152;SDS011;10734;44.792;20.482;2022-08-21T06:11:35;15.45;;;9.95;;
21152;SDS011;10734;44.792;20.482;2022-08-21T06:14:03;12.60;;;9.18;;
21152;SDS011;10734;44.792;20.482;2022-08-21T06:16:33;11.25;;;8.65;;
21152;SDS011;10734;44.792;20.482;2022-08-21T06:19:01;17.42;;;11.60;;
21152;SDS011;10734;44.792;20.482;2022-08-21T06:21:28;19.02;;;11.75;;
21152;SDS011;10734;44.792;20.482;2022-08-21T06:23:56;15.15;;;10.23;;
21152;SDS011;10734;44.792;20.482;2022-08-21T06:26:23;14.88;;;9.63;;
21152;SDS011;10734;44.792;20.482;2022-08-21T06:28:51;14.05;;;10.50;;
21152;SDS011;10734;44.792;20.482;2022-08-21T06:31:20;12.32;;;9.10;;
21152;SDS011;10734;44.792;20.482;2022-08-21T06:33:52;16.77;;;11.52;;
21152;SDS011;10734;44.792;20.482;2022-08-21T06:36:22;15.75;;;10.00;;
21152;SDS011;10734;44.792;20.482;2022-08-21T06:38:51;12.18;;;8.43;;
21152;SDS011;10734;44.792;20.482;2022-08-21T06:41:19;14.90;;;9.40;;
21152;SDS011;10734;44.792;20.482;2022-08-21T06:43:50;18.05;;;12.82;;
21152;SDS011;10734;44.792;20.482;2022-08-21T06:46:17;12.45;;;10.93;;
21152;SDS011;10734;44.792;20.482;2022-08-21T06:48:47;20.45;;;8.75;;
21152;SDS011;10734;44.792;20.482;2022-08-21T06:51:17;16.88;;;10.57;;
21152;SDS011;10734;44.792;20.482;2022-08-21T06:53:48;17.17;;;11.13;;
21152;SDS011;10734;44.792;20.482;2022-08-21T06:56:17;15.13;;;10.00;;
21152;SDS011;10734;44.792;20.482;2022-08-21T06:58:45;15.23;;;10.63;;
21152;SDS011;10734;44.792;20.482;2022-08-21T07:01:13;14.57;;;7.43;;
21152;SDS011;10734;44.792;20.482;2022-08-21T07:03:41;10.93;;;7.30;;
21152;SDS011;10734;44.792;20.482;2022-08-21T07:06:10;12.25;;;6.53;;
21152;SDS011;10734;44.792;20.482;2022-08-21T07:08:38;10.57;;;7.07;;
21152;SDS011;10734;44.792;20.482;2022-08-21T07:11:07;12.00;;;7.65;;
21152;SDS011;10734;44.792;20.482;2022-08-21T07:13:38;10.73;;;7.65;;
21152;SDS011;10734;44.792;20.482;2022-08-21T07:16:05;15.40;;;8.75;;
21152;SDS011;10734;44.792;20.482;2022-08-21T07:18:32;12.77;;;6.25;;
21152;SDS011;10734;44.792;20.482;2022-08-21T07:21:00;9.40;;;6.82;;
21152;SDS011;10734;44.792;20.482;2022-08-21T07:23:31;9.05;;;5.85;;
21152;SDS011;10734;44.792;20.482;2022-08-21T07:26:02;9.63;;;5.68;;
21152;SDS011;10734;44.792;20.482;2022-08-21T07:28:30;14.43;;;7.90;;
21152;SDS011;10734;44.792;20.482;2022-08-21T07:30:59;11.15;;;7.68;;
21152;SDS011;10734;44.792;20.482;2022-08-21T07:33:29;14.23;;;8.23;;
21152;SDS011;10734;44.792;20.482;2022-08-21T07:36:00;12.55;;;7.97;;
21152;SDS011;10734;44.792;20.482;2022-08-21T07:38:30;13.30;;;8.05;;
21152;SDS011;10734;44.792;20.482;2022-08-21T07:41:00;12.63;;;8.05;;
21152;SDS011;10734;44.792;20.482;2022-08-21T07:43:43;11.90;;;7.75;;
21152;SDS011;10734;44.792;20.482;2022-08-21T07:46:13;8.90;;;6.95;;
21152;SDS011;10734;44.792;20.482;2022-08-21T07:48:42;8.70;;;5.93;;
21152;SDS011;10734;44.792;20.482;2022-08-21T07:51:12;9.68;;;6.47;;
21152;SDS011;10734;44.792;20.482;2022-08-21T07:53:42;7.70;;;5.53;;
21152;SDS011;10734;44.792;20.482;2022-08-21T07:56:27;6.57;;;5.07;;
21152;SDS011;10734;44.792;20.482;2022-08-21T07:58:58;7.85;;;5.93;;
21152;SDS011;10734;44.792;20.482;2022-08-21T08:01:25;8.68;;;5.15;;
21152;SDS011;10734;44.792;20.482;2022-08-21T08:03:56;6.55;;;5.00;;
21152;SDS011;10734;44.792;20.482;2022-08-21T08:06:23;7.10;;;5.22;;
21152;SDS011;10734;44.792;20.482;2022-08-21T08:08:50;9.13;;;5.40;;
21152;SDS011;10734;44.792;20.482;2022-08-21T08:11:16;10.60;;;5.30;;
21152;SDS011;10734;44.792;20.482;2022-08-21T08:13:45;7.22;;;5.18;;
21152;SDS011;10734;44.792;20.482;2022-08-21T08:16:14;9.23;;;6.22;;
21152;SDS011;10734;44.792;20.482;2022-08-21T08:18:41;13.23;;;5.97;;
21152;SDS011;10734;44.792;20.482;2022-08-21T08:21:08;9.93;;;6.72;;
21152;SDS011;10734;44.792;20.482;2022-08-21T08:23:36;9.02;;;6.15;;
21152;SDS011;10734;44.792;20.482;2022-08-21T08:26:04;11.27;;;5.88;;
21152;SDS011;10734;44.792;20.482;2022-08-21T08:28:31;9.15;;;5.05;;
21152;SDS011;10734;44.792;20.482;2022-08-21T08:30:59;8.30;;;6.97;;
21152;SDS011;10734;44.792;20.482;2022-08-21T08:33:29;12.02;;;7.38;;
21152;SDS011;10734;44.792;20.482;2022-08-21T08:35:56;16.70;;;8.38;;
21152;SDS011;10734;44.792;20.482;2022-08-21T08:38:24;12.00;;;6.85;;
21152;SDS011;10734;44.792;20.482;2022-08-21T08:43:37;15.13;;;9.20;;
21152;SDS011;10734;44.792;20.482;2022-08-21T08:46:05;19.33;;;10.57;;
21152;SDS011;10734;44.792;20.482;2022-08-21T08:48:51;15.77;;;9.27;;
21152;SDS011;10734;44.792;20.482;2022-08-21T08:55:03;13.23;;;8.10;;
21152;SDS011;10734;44.792;20.482;2022-08-21T08:57:23;11.07;;;8.75;;
21152;SDS011;10734;44.792;20.482;2022-08-21T08:59:53;11.15;;;8.98;;
21152;SDS011;10734;44.792;20.482;2022-08-21T09:02:30;9.07;;;7.45;;
21152;SDS011;10734;44.792;20.482;2022-08-21T09:04:59;14.05;;;9.93;;
21152;SDS011;10734;44.792;20.482;2022-08-21T09:10:10;14.50;;;9.35;;
21152;SDS011;10734;44.792;20.482;2022-08-21T09:15:49;15.45;;;9.07;;
21152;SDS011;10734;44.792;20.482;2022-08-21T09:18:20;10.07;;;7.82;;
21152;SDS011;10734;44.792;20.482;2022-08-21T09:21:02;15.85;;;9.70;;
21152;SDS011;10734;44.792;20.482;2022-08-21T09:24:00;12.88;;;8.68;;
21152;SDS011;10734;44.792;20.482;2022-08-21T09:26:43;13.80;;;8.07;;
21152;SDS011;10734;44.792;20.482;2022-08-21T09:29:19;14.85;;;8.48;;
21152;SDS011;10734;44.792;20.482;2022-08-21T09:31:50;11.27;;;6.80;;
21152;SDS011;10734;44.792;20.482;2022-08-21T09:34:24;12.32;;;7.97;;
21152;SDS011;10734;44.792;20.482;2022-08-21T09:36:58;13.45;;;8.55;;
21152;SDS011;10734;44.792;20.482;2022-08-21T09:39:29;12.55;;;8.05;;
21152;SDS011;10734;44.792;20.482;2022-08-21T09:42:08;10.80;;;7.95;;
21152;SDS011;10734;44.792;20.482;2022-08-21T09:44:40;11.60;;;7.63;;
21152;SDS011;10734;44.792;20.482;2022-08-21T09:47:11;15.85;;;9.70;;
21152;SDS011;10734;44.792;20.482;2022-08-21T09:49:53;14.18;;;9.10;;
21152;SDS011;10734;44.792;20.482;2022-08-21T09:52:22;11.98;;;9.02;;
21152;SDS011;10734;44.792;20.482;2022-08-21T09:54:55;13.20;;;7.13;;
21152;SDS011;10734;44.792;20.482;2022-08-21T09:57:28;12.15;;;8.00;;
21152;SDS011;10734;44.792;20.482;2022-08-21T10:00:25;13.02;;;9.45;;
21152;SDS011;10734;44.792;20.482;2022-08-21T10:03:16;14.30;;;8.73;;
21152;SDS011;10734;44.792;20.482;2022-08-21T10:05:53;13.32;;;8.25;;
21152;SDS011;10734;44.792;20.482;2022-08-21T10:08:38;13.02;;;8.15;;
21152;SDS011;10734;44.792;20.482;2022-08-21T10:11:11;12.32;;;8.40;;
21152;SDS011;10734;44.792;20.482;2022-08-21T10:25:08;10.82;;;6.50;;
21152;SDS011;10734;44.792;20.482;2022-08-21T10:36:27;8.38;;;5.43;;
21152;SDS011;10734;44.792;20.482;2022-08-21T10:48:08;9.63;;;6.03;;
21152;SDS011;10734;44.792;20.482;2022-08-21T10:53:57;11.77;;;4.07;;
21152;SDS011;10734;44.792;20.482;2022-08-21T10:56:39;9.00;;;4.55;;
21152;SDS011;10734;44.792;20.482;2022-08-21T10:59:23;12.95;;;3.88;;
21152;SDS011;10734;44.792;20.482;2022-08-21T11:02:27;3.63;;;2.42;;
21152;SDS011;10734;44.792;20.482;2022-08-21T11:05:12;9.77;;;3.67;;
21152;SDS011;10734;44.792;20.482;2022-08-21T11:10:37;5.43;;;4.15;;
21152;SDS011;10734;44.792;20.482;2022-08-21T11:13:30;7.85;;;4.25;;
21152;SDS011;10734;44.792;20.482;2022-08-21T11:16:27;6.30;;;3.95;;
21152;SDS011;10734;44.792;20.482;2022-08-21T11:19:17;7.10;;;3.90;;
21152;SDS011;10734;44.792;20.482;2022-08-21T11:21:51;7.70;;;3.78;;
21152;SDS011;10734;44.792;20.482;2022-08-21T11:24:30;8.23;;;4.75;;
21152;SDS011;10734;44.792;20.482;2022-08-21T11:29:41;7.93;;;5.50;;
21152;SDS011;10734;44.792;20.482;2022-08-21T11:32:24;8.05;;;4.80;;
21152;SDS011;10734;44.792;20.482;2022-08-21T11:45:49;7.45;;;5.20;;
21152;SDS011;10734;44.792;20.482;2022-08-21T11:51:07;9.05;;;4.97;;
21152;SDS011;10734;44.792;20.482;2022-08-21T11:53:43;7.13;;;5.07;;
21152;SDS011;10734;44.792;20.482;2022-08-21T11:56:41;8.20;;;6.28;;
21152;SDS011;10734;44.792;20.482;2022-08-21T12:01:46;9.05;;;6.78;;
21152;SDS011;10734;44.792;20.482;2022-08-21T12:06:44;9.90;;;6.68;;
21152;SDS011;10734;44.792;20.482;2022-08-21T12:09:28;11.95;;;8.63;;
21152;SDS011;10734;44.792;20.482;2022-08-21T12:14:39;10.75;;;8.27;;
21152;SDS011;10734;44.792;20.482;2022-08-21T12:17:19;12.15;;;7.97;;
21152;SDS011;10734;44.792;20.482;2022-08-21T12:20:15;10.27;;;8.25;;
21152;SDS011;10734;44.792;20.482;2022-08-21T12:22:53;8.93;;;6.38;;
21152;SDS011;10734;44.792;20.482;2022-08-21T12:25:35;9.07;;;7.88;;
21152;SDS011;10734;44.792;20.482;2022-08-21T12:28:09;10.25;;;7.53;;
21152;SDS011;10734;44.792;20.482;2022-08-21T12:30:39;10.52;;;7.80;;
21152;SDS011;10734;44.792;20.482;2022-08-21T12:35:47;9.38;;;8.48;;
21152;SDS011;10734;44.792;20.482;2022-08-21T12:38:27;12.07;;;8.73;;
21152;SDS011;10734;44.792;20.482;2022-08-21T12:41:01;16.80;;;10.07;;
21152;SDS011;10734;44.792;20.482;2022-08-21T12:43:35;12.43;;;9.65;;
21152;SDS011;10734;44.792;20.482;2022-08-21T12:46:13;15.88;;;10.23;;
21152;SDS011;10734;44.792;20.482;2022-08-21T12:48:51;11.98;;;9.13;;
21152;SDS011;10734;44.792;20.482;2022-08-21T12:51:26;11.13;;;8.80;;
21152;SDS011;10734;44.792;20.482;2022-08-21T12:53:58;12.73;;;7.55;;
21152;SDS011;10734;44.792;20.482;2022-08-21T12:56:28;9.23;;;7.60;;
21152;SDS011;10734;44.792;20.482;2022-08-21T12:59:06;12.60;;;7.60;;
21152;SDS011;10734;44.792;20.482;2022-08-21T13:04:11;8.82;;;6.72;;
21152;SDS011;10734;44.792;20.482;2022-08-21T13:06:45;10.43;;;6.53;;
21152;SDS011;10734;44.792;20.482;2022-08-21T13:09:15;7.00;;;5.82;;
21152;SDS011;10734;44.792;20.482;2022-08-21T13:11:46;6.37;;;5.70;;
21152;SDS011;10734;44.792;20.482;2022-08-21T13:14:23;5.57;;;4.72;;
21152;SDS011;10734;44.792;20.482;2022-08-21T13:16:53;6.82;;;4.75;;
21152;SDS011;10734;44.792;20.482;2022-08-21T13:19:21;6.70;;;4.85;;
21152;SDS011;10734;44.792;20.482;2022-08-21T13:21:49;5.93;;;4.22;;
21152;SDS011;10734;44.792;20.482;2022-08-21T13:24:26;5.35;;;4.70;;
21152;SDS011;10734;44.792;20.482;2022-08-21T13:27:18;4.82;;;4.22;;
21152;SDS011;10734;44.792;20.482;2022-08-21T13:30:00;5.10;;;4.30;;
21152;SDS011;10734;44.792;20.482;2022-08-21T13:32:48;5.15;;;4.75;;
21152;SDS011;10734;44.792;20.482;2022-08-21T13:35:22;9.95;;;4.72;;
21152;SDS011;10734;44.792;20.482;2022-08-21T13:37:52;5.00;;;4.53;;
21152;SDS011;10734;44.792;20.482;2022-08-21T13:40:25;3.92;;;3.53;;
21152;SDS011;10734;44.792;20.482;2022-08-21T13:42:57;4.72;;;3.95;;
21152;SDS011;10734;44.792;20.482;2022-08-21T13:45:29;5.40;;;3.78;;
21152;SDS011;10734;44.792;20.482;2022-08-21T13:47:59;4.18;;;3.47;;
21152;SDS011;10734;44.792;20.482;2022-08-21T13:50:40;6.38;;;3.63;;
21152;SDS011;10734;44.792;20.482;2022-08-21T13:53:18;6.63;;;3.70;;
21152;SDS011;10734;44.792;20.482;2022-08-21T13:55:54;4.88;;;3.70;;
21152;SDS011;10734;44.792;20.482;2022-08-21T13:58:27;5.93;;;4.65;;
21152;SDS011;10734;44.792;20.482;2022-08-21T14:00:56;3.63;;;3.33;;
21152;SDS011;10734;44.792;20.482;2022-08-21T14:05:58;4.82;;;4.30;;
21152;SDS011;10734;44.792;20.482;2022-08-21T14:08:31;5.25;;;4.03;;
21152;SDS011;10734;44.792;20.482;2022-08-21T14:11:00;5.18;;;4.20;;
21152;SDS011;10734;44.792;20.482;2022-08-21T14:13:40;4.90;;;4.18;;
21152;SDS011;10734;44.792;20.482;2022-08-21T14:19:38;3.85;;;3.42;;
21152;SDS011;10734;44.792;20.482;2022-08-21T14:21:44;3.20;;;2.90;;
21152;SDS011;10734;44.792;20.482;2022-08-21T14:24:25;3.60;;;3.08;;
21152;SDS011;10734;44.792;20.482;2022-08-21T14:26:55;3.65;;;3.30;;
21152;SDS011;10734;44.792;20.482;2022-08-21T14:29:28;6.43;;;3.53;;
21152;SDS011;10734;44.792;20.482;2022-08-21T14:32:13;4.05;;;3.53;;
21152;SDS011;10734;44.792;20.482;2022-08-21T14:34:50;4.65;;;3.65;;
21152;SDS011;10734;44.792;20.482;2022-08-21T14:37:17;6.05;;;4.43;;
21152;SDS011;10734;44.792;20.482;2022-08-21T14:39:44;5.53;;;4.70;;
21152;SDS011;10734;44.792;20.482;2022-08-21T14:42:12;5.55;;;3.65;;
21152;SDS011;10734;44.792;20.482;2022-08-21T14:44:39;4.18;;;3.85;;
21152;SDS011;10734;44.792;20.482;2022-08-21T14:47:05;5.50;;;5.03;;
21152;SDS011;10734;44.792;20.482;2022-08-21T14:49:32;6.40;;;4.88;;
21152;SDS011;10734;44.792;20.482;2022-08-21T14:51:59;5.72;;;4.97;;
21152;SDS011;10734;44.792;20.482;2022-08-21T14:54:29;5.72;;;4.85;;
21152;SDS011;10734;44.792;20.482;2022-08-21T14:57:08;6.40;;;5.72;;
21152;SDS011;10734;44.792;20.482;2022-08-21T14:59:36;6.00;;;5.40;;
21152;SDS011;10734;44.792;20.482;2022-08-21T15:02:04;6.75;;;6.10;;
21152;SDS011;10734;44.792;20.482;2022-08-21T15:04:31;5.70;;;5.15;;
21152;SDS011;10734;44.792;20.482;2022-08-21T15:06:59;7.00;;;6.30;;
21152;SDS011;10734;44.792;20.482;2022-08-21T15:09:26;6.15;;;5.45;;
21152;SDS011;10734;44.792;20.482;2022-08-21T15:11:53;8.48;;;6.35;;
21152;SDS011;10734;44.792;20.482;2022-08-21T15:14:25;7.43;;;5.70;;
21152;SDS011;10734;44.792;20.482;2022-08-21T15:16:55;7.85;;;7.03;;
21152;SDS011;10734;44.792;20.482;2022-08-21T15:19:23;8.25;;;7.10;;
21152;SDS011;10734;44.792;20.482;2022-08-21T15:21:52;7.53;;;6.82;;
21152;SDS011;10734;44.792;20.482;2022-08-21T15:24:19;7.55;;;6.45;;
21152;SDS011;10734;44.792;20.482;2022-08-21T15:26:46;8.95;;;7.18;;
21152;SDS011;10734;44.792;20.482;2022-08-21T15:29:14;11.73;;;7.38;;
21152;SDS011;10734;44.792;20.482;2022-08-21T15:34:18;14.50;;;7.75;;
21152;SDS011;10734;44.792;20.482;2022-08-21T15:36:44;7.30;;;5.93;;
21152;SDS011;10734;44.792;20.482;2022-08-21T15:39:11;9.90;;;7.97;;
21152;SDS011;10734;44.792;20.482;2022-08-21T15:41:38;8.32;;;6.85;;
21152;SDS011;10734;44.792;20.482;2022-08-21T15:44:05;9.95;;;8.43;;
21152;SDS011;10734;44.792;20.482;2022-08-21T15:46:31;10.02;;;8.98;;
21152;SDS011;10734;44.792;20.482;2022-08-21T15:48:58;12.35;;;9.93;;
21152;SDS011;10734;44.792;20.482;2022-08-21T15:51:25;13.98;;;8.13;;
21152;SDS011;10734;44.792;20.482;2022-08-21T15:53:52;9.50;;;8.50;;
21152;SDS011;10734;44.792;20.482;2022-08-21T15:58:50;9.50;;;8.60;;
21152;SDS011;10734;44.792;20.482;2022-08-21T16:01:20;10.88;;;7.53;;
21152;SDS011;10734;44.792;20.482;2022-08-21T16:03:48;13.45;;;8.02;;
21152;SDS011;10734;44.792;20.482;2022-08-21T16:06:16;10.30;;;9.30;;
21152;SDS011;10734;44.792;20.482;2022-08-21T16:09:03;9.65;;;8.43;;
21152;SDS011;10734;44.792;20.482;2022-08-21T16:11:30;10.20;;;8.35;;
21152;SDS011;10734;44.792;20.482;2022-08-21T16:13:56;10.85;;;9.23;;
21152;SDS011;10734;44.792;20.482;2022-08-21T16:16:23;8.60;;;7.70;;
21152;SDS011;10734;44.792;20.482;2022-08-21T16:18:51;11.45;;;8.07;;
21152;SDS011;10734;44.792;20.482;2022-08-21T16:21:20;10.75;;;9.50;;
21152;SDS011;10734;44.792;20.482;2022-08-21T16:23:46;9.38;;;8.43;;